1060 Brickell
1060 Brickell Ave. Miami, Fl. 33131

  • Year Built 2008
  • Total Units 570
  • Stories 0
  • Sq. Ft. Range From 929 to 2,525
  • Price Range $300K to $1.75M
  • Average Price PSF $419

1060 Brickell is a luxury condo property centrally located in the heart of Brickell. Nestled on the popular Brickell Avenue, this property is a short stroll away from the vibrant Mary Brickell Village, as well as minutes away from world class restaurants, cafes, boutiques, shops, and the invigorating nightlife scene all across downtown Miami. What’s more, 1060 Brickell is a short drive away from the world-famous South Beach.

Floor plans at 1060 Brickell include variations on studio layouts, one bedroom, two bedroom, and three bedroom designs, all laid out with the modern lifestyle in mind. Individual condos feature luxuries such as floor to ceiling windows, marble floors, spacious private terraces, energy efficient and hurricane rated windows and doors, dramatic high ceilings, walk in closets, and washer and dryer systems. The gourmet kitchens include granite countertops, top of the line stainless steel appliances, and rich European style cabinetry. Condos enjoy sweeping views of Biscayne Bay, and downtown Miami.

The amenities featured at 1060 Brickell include a state of the art fitness center complete with steam rooms, showers, and lockers; a virtual golf room with a sophisticated golf simulator; a wine and cigar lounge with temperature control and personal humidors; spa treatment rooms; a yoga and aerobics studio; a recreational game room with a billiard table; a lounge and party room with a full service catering kitchen; around the clock security; valet parking; and a beautifully landscaped elevated resort deck with an abundance of lounge chairs surrounding a large turquoise pool and whirlpool.

UNIT # ASCDESC List Price ASCDESC List sq / ft ASCDESC Beds / Baths ASCDESC Sq.Ft ASCDESC LIST DATE ASCDESC
3 Bedroom Units
4407 http://www.mattcranemiami.com/property/1060-brickell-av-4407-miami-fl-33131-a10233515 $975,000.00 $522 3/3 1,867 sq.ft 03/01/2017
4503 http://www.mattcranemiami.com/property/1060-brickell-ave-4503-miami-fl-33131-a10156118 $1,750,000.00 $693 3/3 2,525 sq.ft 09/29/2016
2 Bedroom Units
1003 http://www.mattcranemiami.com/property/1060-brickell-ave-1003-miami-fl-33131-a10319583 $529,000.00 $367 2/2 1,440 sq.ft 08/01/2017
1811 http://www.mattcranemiami.com/property/1060-brickell-av-1811-miami-fl-33131-a10313319 $450,000.00 $414 2/2 1,088 sq.ft 07/19/2017
3911 http://www.mattcranemiami.com/property/1060-brickell-ave-3911-miami-fl-33131-a10313031 $430,000.00 $395 2/2 1,088 sq.ft 07/19/2017
1411 http://www.mattcranemiami.com/property/1060-brickell-ave-1411-miami-fl-33131-a10288487 $398,000.00 $366 2/2 1,088 sq.ft 06/05/2017
3207 http://www.mattcranemiami.com/property/1060-brickell-av-3207-miami-fl-33131-a10280476 $478,000.00 $439 2/2 1,088 sq.ft 05/19/2017
3517 http://www.mattcranemiami.com/property/1060-brickell-ave-3517-miami-fl-33131-a10229228 $529,000.00 $387 2/2 1,368 sq.ft 02/21/2017
3811 http://www.mattcranemiami.com/property/1060-brickell-ave-3811-miami-fl-33131-a10225272 $450,000.00 $414 2/2 1,088 sq.ft 02/14/2017
3111 http://www.mattcranemiami.com/property/1060-brickell-av-3111-miami-fl-33131-a10209238 $425,000.00 $391 2/2 1,088 sq.ft 01/18/2017
2811 http://www.mattcranemiami.com/property/1060-brickell-ave-2811-miami-fl-33131-a10204385 $435,000.00 $400 2/2 1,088 sq.ft 01/10/2017
2217 http://www.mattcranemiami.com/property/1060-brickell-av-2217-miami-fl-33131-a10201392 $485,000.00 $355 2/2 1,368 sq.ft 01/04/2017
4209 http://www.mattcranemiami.com/property/1060-brickell-ave-4209-miami-fl-33131-a10194863 $899,999.00 $453 2/3 1,987 sq.ft 12/16/2016
3917 http://www.mattcranemiami.com/property/1060-brickell-ave-3917-miami-fl-33131-a10180326 $565,000.00 $413 2/2 1,368 sq.ft 11/16/2016
1407 http://www.mattcranemiami.com/property/1060-brickell-av-1407-miami-fl-33131-a10176667 $430,000.00 $395 2/2 1,088 sq.ft 11/09/2016
3707 http://www.mattcranemiami.com/property/1060-brickell-ave-3707-miami-fl-33131-a10174087 $460,000.00 $423 2/2 1,088 sq.ft 11/04/2016
3401 http://www.mattcranemiami.com/property/1060-brickell-ave-3401-miami-fl-33131-a10167145 $549,999.00 $402 2/2 1,368 sq.ft 10/21/2016
4101 http://www.mattcranemiami.com/property/1060-brickell-av-4101-miami-fl-33131-a10117404 $595,000.00 $435 2/2 1,368 sq.ft 07/18/2016
3211 http://www.mattcranemiami.com/property/1060-brickell-ave-3211-miami-fl-33131-a10082721 $485,000.00 $446 2/2 1,088 sq.ft 05/12/2016
1 Bedroom Units
3803 http://www.mattcranemiami.com/property/1060-brickell-av-3803-miami-fl-33131-a10287598 $390,000.00 $405 1/1 963 sq.ft 06/02/2017
1403 http://www.mattcranemiami.com/property/1060-brickell-ave-1403-miami-fl-33131-a10284322 $349,900.00 $377 1/1 929 sq.ft 05/26/2017
815 http://www.mattcranemiami.com/property/1060-brickell-ave-815-miami-fl-33131-a10279162 $394,000.00 $374 1/1 1,053 sq.ft 05/17/2017
3503 http://www.mattcranemiami.com/property/1060-brickell-ave-3503-miami-fl-33131-a10271956 $359,000.00 $373 1/1 963 sq.ft 05/05/2017
409 http://www.mattcranemiami.com/property/1060-brickell-av-409-miami-fl-33131-a10265210 $310,000.00 $316 1/1 982 sq.ft 04/25/2017
2405 http://www.mattcranemiami.com/property/1060-brickell-ave-2405-miami-fl-33131-a10241492 $345,000.00 $358 1/1 963 sq.ft 03/14/2017
2603 http://www.mattcranemiami.com/property/1060-brickell-ave-2603-miami-fl-33131-a10210171 $375,000.00 $389 1/1 963 sq.ft 01/19/2017
611 http://www.mattcranemiami.com/property/1060-brickell-ave-611-miami-fl-33131-a10210076 $389,000.00 $339 1/2 1,147 sq.ft 01/19/2017
1209 http://www.mattcranemiami.com/property/1060-brickell-av-1209-miami-fl-33131-a10181790 $330,000.00 $303 1/1 1,088 sq.ft 11/18/2016
2805 http://www.mattcranemiami.com/property/1060-brickell-av-2805-miami-fl-33131-a10032510 $430,000.00 $447 1/1 963 sq.ft 02/11/2016
3913 http://www.mattcranemiami.com/property/1060-brickell-av-3913-miami-fl-33131-a2180346 $299,900.00 $317 1/1 945 sq.ft 09/25/2015
UNIT # ASCDESC List Price ASCDESC List sq / ft ASCDESC Beds / Baths ASCDESC Sq.Ft ASCDESC LIST DATE ASCDESC
2 Bedroom Units
2007 http://www.mattcranemiami.com/property/1060-brickell-ave-2007-miami-fl-33131-a10325728 $2,699.00 $2 2/2 1,088 sq.ft 08/11/2017
4117 http://www.mattcranemiami.com/property/1060-brickell-ave-4117-miami-fl-33131-a10324320 $3,500.00 $3 2/2 1,368 sq.ft 08/08/2017
2111 http://www.mattcranemiami.com/property/1060-brickell-ave-2111-miami-fl-33131-a10322162 $2,700.00 $2 2/2 1,088 sq.ft 08/04/2017
4117 http://www.mattcranemiami.com/property/1060-brickell-ave-4117-miami-fl-33131-a10322159 $2,950.00 $2 2/2 1,368 sq.ft 08/04/2017
4001 http://www.mattcranemiami.com/property/1060-brickell-ave-4001-miami-fl-33131-a10315449 $3,100.00 $2 2/2 1,368 sq.ft 07/31/2017
1607 http://www.mattcranemiami.com/property/1060-brickell-ave-1607-miami-fl-33131-a10316455 $2,695.00 $2 2/2 1,088 sq.ft 07/25/2017
3911 http://www.mattcranemiami.com/property/1060-brickell-ave-3911-miami-fl-33131-a10313279 $2,600.00 $2 2/2 1,088 sq.ft 07/19/2017
4011 http://www.mattcranemiami.com/property/1060-brickell-ave-4011-miami-fl-33131-a10312162 $2,800.00 $3 2/2 1,088 sq.ft 07/18/2017
3007 http://www.mattcranemiami.com/property/1060-brickell-ave-3007-miami-fl-33131-a10309346 $2,695.00 $2 2/2 1,186 sq.ft 07/12/2017
3401 http://www.mattcranemiami.com/property/1060-brickell-ave-3401-miami-fl-33131-a10309134 $3,150.00 $2 2/2 1,368 sq.ft 07/12/2017
213 http://www.mattcranemiami.com/property/1060-brickell-ave-213-miami-fl-33131-a10300025 $2,600.00 $2 2/2 1,440 sq.ft 06/26/2017
3207 http://www.mattcranemiami.com/property/1060-brickell-av-3207-miami-fl-33131-a10279895 $2,800.00 $3 2/2 1,088 sq.ft 05/19/2017
2011 http://www.mattcranemiami.com/property/1060-brickell-ave-2011-miami-fl-33131-a10256877 $2,450.00 $2 2/2 1,088 sq.ft 04/12/2017
1411 http://www.mattcranemiami.com/property/1060-brickell-ave-1411-miami-fl-33131-a10249689 $2,600.00 $2 2/2 1,088 sq.ft 03/29/2017
1 Bedroom Units
2505 http://www.mattcranemiami.com/property/1060-brickell-ave-2505-miami-fl-33131-a10326544 $2,400.00 $2 1/1 963 sq.ft 08/11/2017
2603 http://www.mattcranemiami.com/property/1060-brickell-avenue-2603-miami-fl-33131-a10321423 $2,200.00 $2 1/1 947 sq.ft 08/03/2017
2013 http://www.mattcranemiami.com/property/1060-brickell-ave-2013-miami-fl-33131-a10304112 $2,200.00 $2 1/1 945 sq.ft 07/03/2017
0 Bedroom Units
2109 http://www.mattcranemiami.com/property/1060-brickell-ave-2109-miami-fl-33131-a10322811 $1,700.00 $3 0/1 551 sq.ft 08/05/2017
UNIT # SOLD PRICE Sold sq/ft Beds / Baths Sq.Ft SOLD DATE
3 Bedroom Units
PH4507 http://www.mattcranemiami.com/property/sold/1060-brickell-av-ph4507-miami-fl-33131-a2165829 $1,350,000.00 $527 3/3 2,564 sq.ft 10/16/2015
2 Bedroom Units
403 http://www.mattcranemiami.com/property/sold/1060-brickell-ave-403-miami-fl-33131-a10110798 $440,000.00 $306 2/2 1,440 sq.ft 06/06/2017
3611 http://www.mattcranemiami.com/property/sold/1060-brickell-ave-3611-miami-fl-33131-a10277704 $393,000.00 $361 2/2 1,088 sq.ft 06/01/2017
2711 http://www.mattcranemiami.com/property/sold/1060-brickell-av-2711-miami-fl-33131-a1911236 $375,000.00 $345 2/2 1,088 sq.ft 05/08/2017
2911 http://www.mattcranemiami.com/property/sold/1060-brickell-ave-2911-miami-fl-33131-a10096131 $388,000.00 $357 2/2 1,088 sq.ft 04/28/2017
2617 http://www.mattcranemiami.com/property/sold/1060-brickell-ave-2617-miami-fl-33131-a10026787 $512,500.00 $375 2/2 1,368 sq.ft 01/27/2017
1517 http://www.mattcranemiami.com/property/sold/1060-brickell-ave-1517-miami-fl-33131-a10054214 $410,000.00 $300 2/2 1,368 sq.ft 08/30/2016
1511 http://www.mattcranemiami.com/property/sold/1060-brickell-av-1511-miami-fl-33131-a2097281 $360,000.00 $331 2/2 1,088 sq.ft 08/01/2016
1507 http://www.mattcranemiami.com/property/sold/1060-brickell-ave-1507-miami-fl-33131-a10038961 $400,000.00 $368 2/2 1,088 sq.ft 06/23/2016
1611 http://www.mattcranemiami.com/property/sold/1060-brickell-av-1611-miami-fl-33131-a10022345 $380,000.00 $349 2/2 1,088 sq.ft 05/27/2016
3307 http://www.mattcranemiami.com/property/sold/1060-brickell-av-3307-miami-fl-33131-a10037443 $440,000.00 $404 2/2 1,088 sq.ft 05/13/2016
1417 http://www.mattcranemiami.com/property/sold/1060-brickell-av-1417-miami-fl-33131-a2150894 $470,000.00 $344 2/2 1,368 sq.ft 02/01/2016
3201 http://www.mattcranemiami.com/property/sold/1060-brickell-av-3201-miami-fl-33131-a2078053 $530,000.00 $387 2/2 1,368 sq.ft 10/15/2015
4011 http://www.mattcranemiami.com/property/sold/1060-brickell-av-4011-miami-fl-33131-a2094976 $495,000.00 $455 2/2 1,088 sq.ft 09/25/2015
1 Bedroom Units
1703 http://www.mattcranemiami.com/property/sold/1060-brickell-ave-1703-miami-fl-33131-a10215229 $325,000.00 $337 1/1 963 sq.ft 05/24/2017
3605 http://www.mattcranemiami.com/property/sold/1060-brickell-ave-3605-miami-fl-33131-a10214788 $325,000.00 $337 1/1 963 sq.ft 04/14/2017
3905 http://www.mattcranemiami.com/property/sold/1060-brickell-ave-3905-miami-fl-33131-a10198882 $326,500.00 $339 1/1 963 sq.ft 04/05/2017
1815 http://www.mattcranemiami.com/property/sold/1060-brickell-ave-1815-miami-fl-33131-a10088644 $285,000.00 $302 1/1 945 sq.ft 03/10/2017
807 http://www.mattcranemiami.com/property/sold/1060-brickell-ave-807-miami-fl-33131-a10185094 $270,000.00 $275 1/1 982 sq.ft 02/13/2017
3303 http://www.mattcranemiami.com/property/sold/1060-brickell-av-3303-miami-fl-33131-a2133829 $318,000.00 $330 1/1 963 sq.ft 01/05/2017
1007 http://www.mattcranemiami.com/property/sold/1060-brickell-ave-1007-miami-fl-33131-a10032501 $310,000.00 $316 1/1 982 sq.ft 10/21/2016
2303 http://www.mattcranemiami.com/property/sold/1060-brickell-ave-2303-miami-fl-33131-a10087436 $305,000.00 $317 1/1 963 sq.ft 09/23/2016
201 http://www.mattcranemiami.com/property/sold/1060-brickell-ave-201-miami-fl-33131-a10066641 $290,000.00 $275 1/1 1,053 sq.ft 09/06/2016
3103 http://www.mattcranemiami.com/property/sold/1060-brickell-ave-3103-miami-fl-33131-a10044139 $350,000.00 $363 1/1 963 sq.ft 05/13/2016
3313 http://www.mattcranemiami.com/property/sold/1060-brickell-av-3313-miami-fl-33131-a10011439 $300,000.00 $317 1/1 945 sq.ft 03/18/2016
2103 http://www.mattcranemiami.com/property/sold/1060-brickell-av-2103-miami-fl-33131-a2044735 $335,000.00 $348 1/1 963 sq.ft 03/16/2016
1009 http://www.mattcranemiami.com/property/sold/1060-brickell-av-1009-miami-fl-33131-a2012127 $390,000.00 $397 1/1 982 sq.ft 12/30/2015
1413 http://www.mattcranemiami.com/property/sold/1060-brickell-av-1413-miami-fl-33131-a2082518 $315,000.00 $333 1/1 945 sq.ft 12/24/2015
0 Bedroom Units
3609 http://www.mattcranemiami.com/property/sold/1060-brickell-ave-3609-miami-fl-33131-a10180557 $250,000.00 $454 0/1 551 sq.ft 02/17/2017
4109 http://www.mattcranemiami.com/property/sold/1060-brickell-ave-4109-miami-fl-33131-a10070978 $245,000.00 $445 0/1 551 sq.ft 11/30/2016
3009 http://www.mattcranemiami.com/property/sold/1060-brickell-av-3009-miami-fl-33131-a2168248 $270,000.00 $490 0/1 551 sq.ft 02/05/2016